Terminal Aerodrome Forecast
Issued by NWS Nashville, TN

Home | Current Version | Previous Version | Text Only | Print | Product List | Glossary On
Versions: 1 2 3 4 5 6 7 8 9 10 11 12 13 14 15 16 17 18 19 20 21
000
FTUS44 KOHX 252300 RRA
TAFCSV
TAF
KCSV 252340Z 2600/2624 29001KT P6SM OVC200
     FM260600 00000KT P6SM -SHRASN BKN080 OVC200
     FM261100 00000KT P6SM SCT200
     FM261800 23005KT P6SM SCT100 BKN200
     FM262200 20005KT P6SM -RA BKN030 BKN100=

USA.gov is the U.S. government's official web portal to all federal, state and local government web resources and services.